createdAt,value
2022-09-09T00:02:21.813Z,14.84
2022-09-09T00:04:56.301Z,15.19
2022-09-09T00:07:49.667Z,15.17
2022-09-09T00:10:32.565Z,14.83
2022-09-09T00:13:07.340Z,15.19
2022-09-09T00:15:41.799Z,15.20
2022-09-09T00:18:29.177Z,14.98
2022-09-09T00:21:16.609Z,14.89
2022-09-09T00:23:55.911Z,15.17
2022-09-09T00:26:33.045Z,15.21
2022-09-09T00:29:13.126Z,15.11
2022-09-09T00:31:44.551Z,15.08
2022-09-09T00:34:20.785Z,14.74
2022-09-09T00:36:54.044Z,15.00
2022-09-09T00:39:34.156Z,14.91
2022-09-09T00:42:34.214Z,14.63
2022-09-09T00:45:35.828Z,14.73
2022-09-09T00:48:14.374Z,14.47
2022-09-09T00:50:56.710Z,14.49
2022-09-09T00:53:59.075Z,14.47
2022-09-09T00:57:03.965Z,14.45
2022-09-09T00:59:51.900Z,14.34
2022-09-09T01:02:47.190Z,14.23
2022-09-09T01:05:31.224Z,14.27
2022-09-09T01:08:06.722Z,13.93
2022-09-09T01:10:55.286Z,14.19
2022-09-09T01:13:34.671Z,13.85
2022-09-09T01:16:12.484Z,14.17
2022-09-09T01:18:50.616Z,14.14
2022-09-09T01:21:31.204Z,14.12
2022-09-09T01:24:09.349Z,14.11
2022-09-09T01:26:43.649Z,13.99
2022-09-09T01:29:18.239Z,14.00
2022-09-09T01:31:54.067Z,13.75
2022-09-09T01:34:32.805Z,14.00
2022-09-09T01:37:08.211Z,13.84
2022-09-09T01:39:43.869Z,13.91
2022-09-09T01:42:17.123Z,13.66
2022-09-09T01:44:48.495Z,13.85
2022-09-09T01:47:19.925Z,13.88
2022-09-09T01:49:51.403Z,13.91
2022-09-09T01:52:23.137Z,13.86
2022-09-09T01:54:54.707Z,13.89
2022-09-09T01:57:31.232Z,13.92
2022-09-09T02:00:12.796Z,13.91
2022-09-09T02:02:57.025Z,13.95
2022-09-09T02:05:45.413Z,13.82
2022-09-09T02:08:31.248Z,13.93
2022-09-09T02:11:09.311Z,14.05
2022-09-09T02:13:42.173Z,13.84
2022-09-09T02:16:40.136Z,13.90
2022-09-09T02:19:26.338Z,14.17
2022-09-09T02:22:00.777Z,14.03
2022-09-09T02:24:35.956Z,14.17
2022-09-09T02:27:09.832Z,14.06
2022-09-09T02:29:43.958Z,14.12
2022-09-09T02:32:18.811Z,13.92
2022-09-09T02:34:57.012Z,13.97
2022-09-09T02:37:36.262Z,13.95
2022-09-09T02:40:11.347Z,13.91
2022-09-09T02:42:46.267Z,13.79
2022-09-09T02:45:20.336Z,13.58
2022-09-09T02:48:07.135Z,13.82
2022-09-09T02:50:51.046Z,13.61
2022-09-09T02:53:31.804Z,13.47
2022-09-09T02:56:14.896Z,13.74
2022-09-09T02:58:47.150Z,13.66
2022-09-09T03:01:18.793Z,13.67
2022-09-09T03:03:50.292Z,13.63
2022-09-09T03:06:22.717Z,13.59
2022-09-09T03:08:55.285Z,13.57
2022-09-09T03:11:28.777Z,13.53
2022-09-09T03:14:00.200Z,13.54
2022-09-09T03:16:31.591Z,13.48
2022-09-09T03:19:03.044Z,13.43
2022-09-09T03:21:34.527Z,13.13
2022-09-09T03:24:07.521Z,13.39
2022-09-09T03:26:39.189Z,13.27
2022-09-09T03:29:10.670Z,13.39
2022-09-09T03:31:42.107Z,13.38
2022-09-09T03:34:14.622Z,13.39
2022-09-09T03:36:59.422Z,13.41
2022-09-09T03:39:31.081Z,13.30
2022-09-09T03:42:05.100Z,13.36
2022-09-09T03:44:36.523Z,13.38
2022-09-09T03:47:08.000Z,13.33
2022-09-09T03:49:39.308Z,13.25
2022-09-09T03:52:11.198Z,13.27
2022-09-09T03:54:43.373Z,13.19
2022-09-09T03:57:17.655Z,13.47
2022-09-09T03:59:49.025Z,13.54
2022-09-09T04:02:20.411Z,13.49
2022-09-09T04:04:51.847Z,13.53
2022-09-09T04:07:23.248Z,13.62
2022-09-09T04:09:55.580Z,13.69
2022-09-09T04:12:26.974Z,13.38
2022-09-09T04:14:58.409Z,13.69
2022-09-09T04:17:29.946Z,13.60
2022-09-09T04:20:02.400Z,13.61
2022-09-09T04:22:34.067Z,13.61
2022-09-09T04:25:06.972Z,13.49
2022-09-09T04:27:38.341Z,13.51
2022-09-09T04:30:11.117Z,13.41
2022-09-09T04:32:42.600Z,13.40
2022-09-09T04:35:14.303Z,13.37
2022-09-09T04:37:45.899Z,13.36
2022-09-09T04:40:17.456Z,13.31
2022-09-09T04:42:49.388Z,13.32
2022-09-09T04:45:20.877Z,13.32
2022-09-09T04:47:52.334Z,13.31
2022-09-09T04:50:23.847Z,13.29
2022-09-09T04:52:55.387Z,13.31
2022-09-09T04:55:26.710Z,13.31
2022-09-09T04:57:58.625Z,13.28
2022-09-09T05:00:30.003Z,13.26
2022-09-09T05:03:05.099Z,13.20
2022-09-09T05:05:36.819Z,13.35
2022-09-09T05:08:09.941Z,13.30
2022-09-09T05:10:42.801Z,13.40
2022-09-09T05:13:14.202Z,13.54
2022-09-09T05:15:53.920Z,13.63
2022-09-09T05:18:25.494Z,13.73
2022-09-09T05:21:01.262Z,13.88
2022-09-09T05:23:34.771Z,13.99
2022-09-09T05:26:07.217Z,14.06
2022-09-09T05:28:38.665Z,14.20
2022-09-09T05:31:13.762Z,14.26
2022-09-09T05:33:47.367Z,14.37
2022-09-09T05:36:21.359Z,14.16
2022-09-09T05:38:54.704Z,14.47
2022-09-09T05:41:26.501Z,14.44
2022-09-09T05:43:59.696Z,14.36
2022-09-09T05:46:31.349Z,14.34
2022-09-09T05:49:04.996Z,14.38
2022-09-09T05:51:36.426Z,14.74
2022-09-09T05:54:07.722Z,14.74
2022-09-09T05:56:39.072Z,14.83
2022-09-09T05:59:10.570Z,14.89
2022-09-09T06:01:42.057Z,14.88
2022-09-09T06:04:13.642Z,14.86
2022-09-09T06:06:45.082Z,14.90
2022-09-09T06:09:16.356Z,14.75
2022-09-09T06:11:47.682Z,14.98
2022-09-09T06:14:19.063Z,14.87
2022-09-09T06:16:50.493Z,15.09
2022-09-09T06:19:21.824Z,15.04
2022-09-09T06:21:53.251Z,15.24
2022-09-09T06:24:24.679Z,15.12
2022-09-09T06:26:56.826Z,15.18
2022-09-09T06:29:28.206Z,15.53
2022-09-09T06:31:59.929Z,15.62
2022-09-09T06:34:31.490Z,15.64
2022-09-09T06:37:02.982Z,15.51
2022-09-09T06:39:34.377Z,15.86
2022-09-09T06:42:05.948Z,15.72
2022-09-09T06:44:37.446Z,16.04
2022-09-09T06:47:08.932Z,16.07
2022-09-09T06:49:40.270Z,16.10
2022-09-09T06:52:11.668Z,16.08
2022-09-09T06:54:42.945Z,16.18
2022-09-09T06:57:36.361Z,16.09
2022-09-09T07:00:06.289Z,16.34
2022-09-09T07:02:40.089Z,16.29
2022-09-09T07:05:11.640Z,16.38
2022-09-09T07:07:44.112Z,16.46
2022-09-09T07:10:15.569Z,16.53
2022-09-09T07:12:52.662Z,16.34
2022-09-09T07:15:24.207Z,16.65
2022-09-09T07:17:55.605Z,16.72
2022-09-09T07:20:26.959Z,16.80
2022-09-09T07:22:59.408Z,16.93
2022-09-09T07:25:31.315Z,16.82
2022-09-09T07:28:02.930Z,17.21
2022-09-09T07:30:34.297Z,17.22
2022-09-09T07:33:05.850Z,17.46
2022-09-09T07:35:37.940Z,17.53
2022-09-09T07:38:10.420Z,17.68
2022-09-09T07:40:42.070Z,17.87
2022-09-09T07:43:17.250Z,18.02
2022-09-09T07:45:50.903Z,17.97
2022-09-09T07:48:22.330Z,18.37
2022-09-09T07:50:53.619Z,18.54
2022-09-09T07:53:24.991Z,18.59
2022-09-09T07:55:56.610Z,18.61
2022-09-09T07:58:27.952Z,18.87
2022-09-09T08:00:59.509Z,19.09
2022-09-09T08:03:30.807Z,19.24
2022-09-09T08:06:08.587Z,19.26
2022-09-09T08:08:42.084Z,19.38
2022-09-09T08:11:18.381Z,19.39
2022-09-09T08:13:54.332Z,19.55
2022-09-09T08:16:29.429Z,19.55
2022-09-09T08:19:00.879Z,19.80
2022-09-09T08:21:34.082Z,19.86
2022-09-09T08:24:08.882Z,19.76
2022-09-09T08:26:42.599Z,19.85
2022-09-09T08:29:14.753Z,20.01
2022-09-09T08:31:48.721Z,20.32
2022-09-09T08:34:20.917Z,20.25
2022-09-09T08:36:52.793Z,20.21
2022-09-09T08:39:24.293Z,20.58
2022-09-09T08:42:22.682Z,20.70
2022-09-09T08:44:59.691Z,20.84
2022-09-09T08:47:56.005Z,21.01
2022-09-09T08:50:30.829Z,21.00
2022-09-09T08:53:15.569Z,21.13
2022-09-09T08:55:50.698Z,21.06
2022-09-09T08:58:30.356Z,21.12
2022-09-09T09:01:09.687Z,21.17
2022-09-09T09:03:58.126Z,21.14
2022-09-09T09:06:34.420Z,21.43
2022-09-09T09:09:31.332Z,21.62
2022-09-09T09:12:10.478Z,21.68
2022-09-09T09:14:45.098Z,22.03
2022-09-09T09:17:23.000Z,22.06
2022-09-09T09:19:55.209Z,22.24
2022-09-09T09:22:52.081Z,22.29
2022-09-09T09:25:32.511Z,22.21
2022-09-09T09:28:20.179Z,21.95
2022-09-09T09:31:06.731Z,21.86
2022-09-09T09:33:50.615Z,21.98
2022-09-09T09:36:33.830Z,22.17
2022-09-09T09:42:05.132Z,22.68
2022-09-09T09:44:38.261Z,22.63
2022-09-09T09:47:14.313Z,22.92
2022-09-09T09:50:00.267Z,23.11
2022-09-09T09:52:33.191Z,23.35
2022-09-09T09:55:08.416Z,23.36
2022-09-09T09:57:40.094Z,23.47
2022-09-09T10:00:21.413Z,23.65
2022-09-09T10:02:53.652Z,23.86
2022-09-09T10:05:30.589Z,23.88
2022-09-09T10:08:13.120Z,23.43
2022-09-09T10:11:17.944Z,23.33
2022-09-09T10:13:59.309Z,23.24
2022-09-09T10:17:07.141Z,23.05
2022-09-09T10:19:41.927Z,23.05
2022-09-09T10:22:28.449Z,23.27
2022-09-09T10:25:17.616Z,23.43
2022-09-09T10:28:09.966Z,23.62
2022-09-09T10:31:17.321Z,23.96
2022-09-09T10:33:54.806Z,24.29
2022-09-09T10:36:30.658Z,24.56
2022-09-09T10:39:15.925Z,24.78
2022-09-09T10:42:06.734Z,24.47
2022-09-09T10:45:00.657Z,24.45
2022-09-09T10:47:40.753Z,24.49
2022-09-09T10:51:11.453Z,24.33
2022-09-09T10:54:05.958Z,24.32
2022-09-09T10:56:39.660Z,24.33
2022-09-09T10:59:18.380Z,24.47
2022-09-09T11:02:03.385Z,24.42
2022-09-09T11:04:43.930Z,24.37
2022-09-09T11:07:29.487Z,24.22
2022-09-09T11:10:07.310Z,24.25
2022-09-09T11:12:41.910Z,24.22
2022-09-09T11:15:23.804Z,24.15
2022-09-09T11:17:59.613Z,24.25
2022-09-09T11:20:33.062Z,24.49
2022-09-09T11:23:13.400Z,24.34
2022-09-09T11:26:01.059Z,24.54
2022-09-09T11:28:45.540Z,24.89
2022-09-09T11:31:46.224Z,24.84
2022-09-09T11:34:32.356Z,25.07
2022-09-09T11:37:18.253Z,25.20
2022-09-09T11:40:09.428Z,25.62
2022-09-09T11:42:41.044Z,25.69
2022-09-09T11:45:26.737Z,25.78
2022-09-09T11:48:00.509Z,25.49
2022-09-09T11:50:38.560Z,25.19
2022-09-09T11:53:23.446Z,25.19
2022-09-09T11:56:05.969Z,25.14
2022-09-09T11:58:57.649Z,25.07
2022-09-09T12:01:34.939Z,25.02
2022-09-09T12:04:12.173Z,25.15
2022-09-09T12:06:47.129Z,25.22
2022-09-09T12:09:43.442Z,25.29
2022-09-09T12:12:14.821Z,25.16
2022-09-09T12:15:20.856Z,24.99
2022-09-09T12:17:55.905Z,24.53
2022-09-09T12:20:32.389Z,24.45
2022-09-09T12:23:22.179Z,24.15
2022-09-09T12:26:09.827Z,23.83
2022-09-09T12:28:51.741Z,23.42
2022-09-09T12:31:47.549Z,23.01
2022-09-09T12:34:46.476Z,22.97
2022-09-09T12:37:28.226Z,22.69
2022-09-09T12:40:03.107Z,22.35
2022-09-09T12:42:41.499Z,22.08
2022-09-09T12:45:33.795Z,22.06
2022-09-09T12:48:09.405Z,21.93
2022-09-09T12:50:48.702Z,21.74
2022-09-09T12:53:27.215Z,21.55
2022-09-09T12:56:11.013Z,21.06
2022-09-09T12:58:47.850Z,21.23
2022-09-09T13:01:25.322Z,20.80
2022-09-09T13:03:57.718Z,20.68
2022-09-09T13:06:31.602Z,20.77
2022-09-09T13:09:03.876Z,20.64
2022-09-09T13:11:40.918Z,20.57
2022-09-09T13:14:35.638Z,20.38
2022-09-09T13:17:18.108Z,19.97
2022-09-09T13:19:53.464Z,20.17
2022-09-09T13:22:38.839Z,20.07
2022-09-09T13:25:10.958Z,19.99
2022-09-09T13:27:56.911Z,19.62
2022-09-09T13:30:30.424Z,19.81
2022-09-09T13:33:13.937Z,19.67
2022-09-09T13:36:04.347Z,19.24
2022-09-09T13:38:55.811Z,19.42
2022-09-09T13:41:33.533Z,19.21
2022-09-09T13:44:07.515Z,19.13
2022-09-09T13:46:41.429Z,18.85
2022-09-09T13:49:12.717Z,18.81
2022-09-09T13:51:47.852Z,18.57
2022-09-09T13:54:21.122Z,18.35
2022-09-09T13:56:52.478Z,18.13
2022-09-09T13:59:30.713Z,17.86
2022-09-09T14:02:14.942Z,17.75
2022-09-09T14:04:46.378Z,17.41
2022-09-09T14:07:19.728Z,17.63
2022-09-09T14:09:52.691Z,17.53
2022-09-09T14:12:24.120Z,17.42
2022-09-09T14:14:55.391Z,17.23
2022-09-09T14:17:32.071Z,17.25
2022-09-09T14:20:08.860Z,17.09
2022-09-09T14:22:40.263Z,17.24
2022-09-09T14:25:14.315Z,17.20
2022-09-09T14:27:46.843Z,17.25
2022-09-09T14:30:18.265Z,17.41
2022-09-09T14:32:49.678Z,17.41
2022-09-09T14:35:21.021Z,17.38
2022-09-09T14:37:52.712Z,17.31
2022-09-09T14:40:24.035Z,17.53
2022-09-09T14:42:56.662Z,17.58
2022-09-09T14:45:28.048Z,17.70
2022-09-09T14:48:00.412Z,17.78
2022-09-09T14:50:31.898Z,17.78
2022-09-09T14:53:03.344Z,17.87
2022-09-09T14:55:34.806Z,17.69
2022-09-09T14:58:07.148Z,17.84
2022-09-09T15:00:38.417Z,18.07
2022-09-09T15:03:11.737Z,18.08
2022-09-09T15:05:43.016Z,18.18
2022-09-09T15:08:16.975Z,18.14
2022-09-09T15:10:48.334Z,18.34
2022-09-09T15:13:19.613Z,18.42
2022-09-09T15:15:51.160Z,18.40
2022-09-09T15:18:22.689Z,18.53
2022-09-09T15:20:54.194Z,18.58
2022-09-09T15:23:25.536Z,18.59
2022-09-09T15:25:57.444Z,18.36
2022-09-09T15:28:29.170Z,18.59
2022-09-09T15:31:07.779Z,18.58
2022-09-09T15:33:39.397Z,18.73
2022-09-09T15:36:19.622Z,19.04
2022-09-09T15:38:52.421Z,19.18
2022-09-09T15:41:24.547Z,19.26
2022-09-09T15:44:00.758Z,19.19
2022-09-09T15:46:38.162Z,19.32
2022-09-09T15:49:12.663Z,19.23
2022-09-09T15:51:52.388Z,19.01
2022-09-09T15:54:25.161Z,19.00
2022-09-09T15:56:59.868Z,19.06
2022-09-09T15:59:32.389Z,19.02
2022-09-09T16:02:04.055Z,18.75
2022-09-09T16:04:35.487Z,18.77
2022-09-09T16:07:07.226Z,18.91
2022-09-09T16:09:40.178Z,18.77
2022-09-09T16:12:13.082Z,18.61
2022-09-09T16:14:46.272Z,18.54
2022-09-09T16:17:17.629Z,18.47
2022-09-09T16:19:48.964Z,18.40
2022-09-09T16:22:20.551Z,18.24
2022-09-09T16:24:52.106Z,18.24
2022-09-09T16:27:24.171Z,18.14
2022-09-09T16:29:55.506Z,17.98
2022-09-09T16:32:27.074Z,17.98
2022-09-09T16:34:58.511Z,18.00
2022-09-09T16:37:30.435Z,17.90
2022-09-09T16:40:04.277Z,17.81
2022-09-09T16:42:39.418Z,17.69
2022-09-09T16:45:14.330Z,17.68
2022-09-09T16:47:45.655Z,17.60
2022-09-09T16:50:17.283Z,17.62
2022-09-09T16:52:48.729Z,17.54
2022-09-09T16:55:23.278Z,17.51
2022-09-09T16:57:54.916Z,17.32
2022-09-09T17:00:27.986Z,17.43
2022-09-09T17:02:59.849Z,17.11
2022-09-09T17:05:31.226Z,17.36
2022-09-09T17:08:02.570Z,17.24
2022-09-09T17:10:34.290Z,17.15
2022-09-09T17:13:05.670Z,17.30
2022-09-09T17:15:43.557Z,17.35
2022-09-09T17:18:14.933Z,17.07
2022-09-09T17:20:47.457Z,17.15
2022-09-09T17:23:18.886Z,17.04
2022-09-09T17:25:59.566Z,16.98
2022-09-09T17:28:32.149Z,16.92
2022-09-09T17:31:05.654Z,16.99
2022-09-09T17:33:42.593Z,16.89
2022-09-09T17:36:27.035Z,16.75
2022-09-09T17:39:00.639Z,16.83
2022-09-09T17:41:38.577Z,16.84
2022-09-09T17:44:10.692Z,16.67
2022-09-09T17:46:44.146Z,16.49
2022-09-09T17:49:18.343Z,16.63
2022-09-09T17:51:49.666Z,16.77
2022-09-09T17:54:21.416Z,16.72
2022-09-09T17:56:53.285Z,16.58
2022-09-09T17:59:26.011Z,16.56
2022-09-09T18:01:57.882Z,16.28
2022-09-09T18:04:29.476Z,16.50
2022-09-09T18:07:00.831Z,16.40
2022-09-09T18:09:32.528Z,16.12
2022-09-09T18:12:04.069Z,16.34
2022-09-09T18:14:35.462Z,16.24
2022-09-09T18:17:06.839Z,16.23
2022-09-09T18:19:38.180Z,15.92
2022-09-09T18:22:09.565Z,16.10
2022-09-09T18:24:41.410Z,15.85
2022-09-09T18:27:12.873Z,16.06
2022-09-09T18:29:44.534Z,16.08
2022-09-09T18:32:17.043Z,15.77
2022-09-09T18:34:51.571Z,16.01
2022-09-09T18:37:26.184Z,15.99
2022-09-09T18:39:57.572Z,16.03
2022-09-09T18:42:28.898Z,15.77
2022-09-09T18:45:00.636Z,16.05
2022-09-09T18:47:32.036Z,15.70
2022-09-09T18:50:04.493Z,15.93
2022-09-09T18:52:35.831Z,16.01
2022-09-09T18:55:09.010Z,15.97
2022-09-09T18:57:41.110Z,15.84
2022-09-09T19:00:12.820Z,15.86
2022-09-09T19:02:44.306Z,15.81
2022-09-09T19:05:15.679Z,15.74
2022-09-09T19:07:47.076Z,15.79
2022-09-09T19:10:19.334Z,15.74
2022-09-09T19:12:51.181Z,15.54
2022-09-09T19:15:23.011Z,15.47
2022-09-09T19:17:56.403Z,15.52
2022-09-09T19:20:27.854Z,15.38
2022-09-09T19:23:00.100Z,15.47
2022-09-09T19:25:37.387Z,15.47
2022-09-09T19:28:08.778Z,15.42
2022-09-09T19:30:40.258Z,15.37
2022-09-09T19:33:12.042Z,15.40
2022-09-09T19:35:43.418Z,15.10
2022-09-09T19:38:14.806Z,15.32
2022-09-09T19:40:46.145Z,15.33
2022-09-09T19:43:17.496Z,15.25
2022-09-09T19:46:06.565Z,15.30
2022-09-09T19:48:41.104Z,15.30
2022-09-09T19:51:17.701Z,15.05
2022-09-09T19:53:58.058Z,14.94
2022-09-09T19:56:31.076Z,14.89
2022-09-09T19:59:03.868Z,15.24
2022-09-09T20:01:41.566Z,15.14
2022-09-09T20:04:14.349Z,15.17
2022-09-09T20:06:46.421Z,15.14
2022-09-09T20:09:18.304Z,15.26
2022-09-09T20:11:50.310Z,15.52
2022-09-09T20:14:21.694Z,15.54
2022-09-09T20:16:53.102Z,15.64
2022-09-09T20:19:24.422Z,15.63
2022-09-09T20:21:56.014Z,15.72
2022-09-09T20:24:27.476Z,15.47
2022-09-09T20:26:58.883Z,15.76
2022-09-09T20:29:30.230Z,15.89
2022-09-09T20:32:01.753Z,15.93
2022-09-09T20:34:33.066Z,15.98
2022-09-09T20:37:05.810Z,16.02
2022-09-09T20:39:37.310Z,15.97
2022-09-09T20:42:08.683Z,16.12
2022-09-09T20:44:39.986Z,16.15
2022-09-09T20:47:11.419Z,15.84
2022-09-09T20:49:43.008Z,15.83
2022-09-09T20:52:15.161Z,15.97
2022-09-09T20:54:47.393Z,15.83
2022-09-09T20:57:21.994Z,15.87
2022-09-09T20:59:53.390Z,15.68
2022-09-09T21:02:24.860Z,15.81
2022-09-09T21:04:56.334Z,15.87
2022-09-09T21:07:29.137Z,15.67
2022-09-09T21:10:01.978Z,15.83
2022-09-09T21:12:33.313Z,15.86
2022-09-09T21:15:05.194Z,15.84
2022-09-09T21:17:36.674Z,15.78
2022-09-09T21:20:08.952Z,15.54
2022-09-09T21:22:40.621Z,15.86
2022-09-09T21:25:11.908Z,15.89
2022-09-09T21:27:43.180Z,15.81
2022-09-09T21:30:14.536Z,15.78
2022-09-09T21:32:45.906Z,15.84
2022-09-09T21:35:17.298Z,15.85
2022-09-09T21:37:49.719Z,15.83
2022-09-09T21:40:22.371Z,15.63
2022-09-09T21:42:53.633Z,15.74
2022-09-09T21:45:26.904Z,15.44
2022-09-09T21:47:58.247Z,15.66
2022-09-09T21:50:29.586Z,15.72
2022-09-09T21:53:00.896Z,15.69
2022-09-09T21:55:36.866Z,15.47
2022-09-09T21:58:11.982Z,15.58
2022-09-09T22:00:45.681Z,15.57
2022-09-09T22:03:17.483Z,15.61
2022-09-09T22:05:53.713Z,15.29
2022-09-09T22:08:25.339Z,15.50
2022-09-09T22:10:57.611Z,15.60
2022-09-09T22:13:29.942Z,15.50
2022-09-09T22:16:04.173Z,15.35
2022-09-09T22:18:35.966Z,15.42
2022-09-09T22:21:14.932Z,15.56
2022-09-09T22:23:52.415Z,15.38
2022-09-09T22:26:25.361Z,15.38
2022-09-09T22:28:57.301Z,15.33
2022-09-09T22:31:28.699Z,15.29
2022-09-09T22:34:00.198Z,15.58
2022-09-09T22:36:31.906Z,15.57
2022-09-09T22:39:03.830Z,15.59
2022-09-09T22:41:35.130Z,15.45
2022-09-09T22:44:09.150Z,15.29
2022-09-09T22:46:40.697Z,15.22
2022-09-09T22:49:12.466Z,15.58
2022-09-09T22:51:44.209Z,15.37
2022-09-09T22:54:21.440Z,15.47
2022-09-09T22:56:52.968Z,15.37
2022-09-09T22:59:24.335Z,15.48
2022-09-09T23:01:57.381Z,15.50
2022-09-09T23:04:29.023Z,15.47
2022-09-09T23:07:00.869Z,15.44
2022-09-09T23:09:32.305Z,15.35
2022-09-09T23:12:04.430Z,15.34
2022-09-09T23:14:35.800Z,15.36
2022-09-09T23:17:07.289Z,15.22
2022-09-09T23:19:39.978Z,15.30
2022-09-09T23:22:11.441Z,15.08
2022-09-09T23:24:42.974Z,15.22
2022-09-09T23:27:14.462Z,15.22
2022-09-09T23:29:48.244Z,15.17
2022-09-09T23:32:19.931Z,14.84
2022-09-09T23:34:51.658Z,15.01
2022-09-09T23:37:23.031Z,15.03
2022-09-09T23:39:54.376Z,14.92
2022-09-09T23:42:26.877Z,14.93
2022-09-09T23:44:58.249Z,14.65
2022-09-09T23:47:29.541Z,14.81
2022-09-09T23:50:01.561Z,14.75
2022-09-09T23:52:33.065Z,14.75
2022-09-09T23:55:05.566Z,14.63
2022-09-09T23:57:36.914Z,14.60
